createdAt,value
2023-01-10T00:01:42.277Z,99371.80
2023-01-10T00:04:10.163Z,99370.61
2023-01-10T00:06:38.437Z,99372.08
2023-01-10T00:09:06.205Z,99375.04
2023-01-10T00:11:52.883Z,99376.05
2023-01-10T00:14:20.756Z,99381.62
2023-01-10T00:16:48.524Z,99382.52
2023-01-10T00:19:16.327Z,99386.39
2023-01-10T00:21:44.039Z,99384.61
2023-01-10T00:24:22.345Z,99384.57
2023-01-10T00:26:51.534Z,99384.39
2023-01-10T00:29:28.955Z,99384.45
2023-01-10T00:31:57.410Z,99384.77
2023-01-10T00:34:25.230Z,99384.52
2023-01-10T00:36:53.379Z,99392.49
2023-01-10T00:39:21.199Z,99392.20
2023-01-10T00:42:07.496Z,99395.98
2023-01-10T00:44:35.569Z,99398.58
2023-01-10T00:47:03.570Z,99398.31
2023-01-10T00:49:31.331Z,99403.47
2023-01-10T00:51:59.961Z,99403.85
2023-01-10T00:54:27.880Z,99404.01
2023-01-10T00:56:55.747Z,99411.35
2023-01-10T00:59:24.073Z,99417.57
2023-01-10T01:01:52.791Z,99419.23
2023-01-10T01:04:21.599Z,99423.08
2023-01-10T01:06:50.849Z,99424.70
2023-01-10T01:09:18.730Z,99431.21
2023-01-10T01:11:46.542Z,99429.06
2023-01-10T01:14:14.262Z,99428.95
2023-01-10T01:16:42.036Z,99431.46
2023-01-10T01:19:09.839Z,99438.70
2023-01-10T01:21:37.615Z,99439.41
2023-01-10T01:24:05.556Z,99440.45
2023-01-10T01:26:35.311Z,99448.14
2023-01-10T01:29:03.205Z,99448.14
2023-01-10T01:31:31.120Z,99450.96
2023-01-10T01:33:59.306Z,99448.20
2023-01-10T01:36:27.067Z,99448.30
2023-01-10T01:38:54.780Z,99454.38
2023-01-10T01:41:41.450Z,99459.18
2023-01-10T01:44:17.585Z,99463.54
2023-01-10T01:46:49.045Z,99459.64
2023-01-10T01:49:23.733Z,99460.08
2023-01-10T01:51:57.772Z,99465.43
2023-01-10T01:54:26.205Z,99467.36
2023-01-10T01:57:00.680Z,99468.73
2023-01-10T01:59:34.448Z,99471.04
2023-01-10T02:02:08.760Z,99470.20
2023-01-10T02:04:42.671Z,99474.06
2023-01-10T02:07:10.929Z,99473.05
2023-01-10T02:09:46.359Z,99478.45
2023-01-10T02:12:15.552Z,99473.54
2023-01-10T02:14:45.130Z,99477.34
2023-01-10T02:17:13.273Z,99479.77
2023-01-10T02:19:51.186Z,99485.95
2023-01-10T02:22:39.815Z,99488.38
2023-01-10T02:25:25.915Z,99492.63
2023-01-10T02:28:20.309Z,99494.25
2023-01-10T02:31:13.006Z,99494.46
2023-01-10T02:33:59.572Z,99498.99
2023-01-10T02:36:33.548Z,99503.48
2023-01-10T02:39:26.194Z,99510.09
2023-01-10T02:42:07.608Z,99511.73
2023-01-10T02:44:54.865Z,99515.22
2023-01-10T02:47:22.572Z,99522.77
2023-01-10T02:49:51.875Z,99519.90
2023-01-10T02:52:28.394Z,99515.60
2023-01-10T02:54:59.723Z,99526.96
2023-01-10T02:57:47.626Z,99526.98
2023-01-10T03:00:30.900Z,99529.09
2023-01-10T03:03:07.989Z,99532.83
2023-01-10T03:06:07.919Z,99539.27
2023-01-10T03:08:40.555Z,99542.20
2023-01-10T03:11:09.851Z,99545.79
2023-01-10T03:13:46.840Z,99549.36
2023-01-10T03:16:18.566Z,99550.64
2023-01-10T03:19:05.068Z,99561.50
2023-01-10T03:21:33.349Z,99567.58
2023-01-10T03:24:06.390Z,99571.60
2023-01-10T03:26:42.494Z,99574.03
2023-01-10T03:29:11.836Z,99576.67
2023-01-10T03:31:49.864Z,99585.45
2023-01-10T03:34:17.961Z,99582.35
2023-01-10T03:37:03.370Z,99584.06
2023-01-10T03:39:41.612Z,99594.11
2023-01-10T03:42:15.933Z,99600.13
2023-01-10T03:44:43.767Z,99607.17
2023-01-10T03:47:39.027Z,99612.98
2023-01-10T03:50:11.137Z,99613.81
2023-01-10T03:52:40.795Z,99621.52
2023-01-10T03:55:12.309Z,99627.81
2023-01-10T03:57:42.687Z,99626.10
2023-01-10T04:00:11.206Z,99636.89
2023-01-10T04:02:39.337Z,99641.60
2023-01-10T04:05:07.817Z,99641.88
2023-01-10T04:07:35.709Z,99645.20
2023-01-10T04:10:05.318Z,99651.42
2023-01-10T04:12:33.270Z,99659.38
2023-01-10T04:15:01.614Z,99659.27
2023-01-10T04:17:29.527Z,99666.15
2023-01-10T04:19:57.287Z,99669.47
2023-01-10T04:22:25.373Z,99670.95
2023-01-10T04:24:54.491Z,99674.20
2023-01-10T04:27:22.380Z,99675.91
2023-01-10T04:29:50.121Z,99678.56
2023-01-10T04:32:17.920Z,99680.87
2023-01-10T04:34:45.750Z,99681.70
2023-01-10T04:37:13.611Z,99693.73
2023-01-10T04:39:41.336Z,99698.48
2023-01-10T04:42:09.124Z,99702.90
2023-01-10T04:44:37.061Z,99709.29
2023-01-10T04:47:04.911Z,99711.48
2023-01-10T04:49:32.723Z,99714.42
2023-01-10T04:52:00.720Z,99718.17
2023-01-10T04:54:28.416Z,99724.07
2023-01-10T04:56:56.212Z,99730.85
2023-01-10T04:59:24.087Z,99743.20
2023-01-10T05:01:51.878Z,99750.20
2023-01-10T05:04:21.004Z,99752.36
2023-01-10T05:06:49.410Z,99754.08
2023-01-10T05:09:17.587Z,99756.63
2023-01-10T05:11:45.598Z,99764.67
2023-01-10T05:14:13.465Z,99765.98
2023-01-10T05:16:41.323Z,99772.07
2023-01-10T05:19:09.549Z,99773.16
2023-01-10T05:21:37.273Z,99781.11
2023-01-10T05:24:05.721Z,99782.73
2023-01-10T05:26:33.545Z,99785.61
2023-01-10T05:29:01.367Z,99787.89
2023-01-10T05:31:29.209Z,99791.21
2023-01-10T05:33:56.933Z,99800.95
2023-01-10T05:36:24.808Z,99805.21
2023-01-10T05:38:52.686Z,99814.36
2023-01-10T05:41:20.894Z,99814.13
2023-01-10T05:43:48.604Z,99818.50
2023-01-10T05:46:16.392Z,99823.59
2023-01-10T05:48:44.200Z,99827.60
2023-01-10T05:51:12.127Z,99830.98
2023-01-10T05:53:39.931Z,99833.01
2023-01-10T05:56:07.797Z,99833.35
2023-01-10T05:58:35.607Z,99838.98
2023-01-10T06:01:03.494Z,99839.36
2023-01-10T06:03:31.345Z,99840.87
2023-01-10T06:05:59.285Z,99853.00
2023-01-10T06:08:27.176Z,99857.42
2023-01-10T06:10:55.699Z,99868.64
2023-01-10T06:13:23.916Z,99870.17
2023-01-10T06:15:51.716Z,99872.95
2023-01-10T06:18:19.524Z,99878.97
2023-01-10T06:20:47.301Z,99882.85
2023-01-10T06:23:15.547Z,99888.92
2023-01-10T06:25:43.472Z,99894.58
2023-01-10T06:28:12.733Z,99898.95
2023-01-10T06:30:42.089Z,99907.69
2023-01-10T06:33:11.362Z,99914.42
2023-01-10T06:35:39.866Z,99922.48
2023-01-10T06:38:07.842Z,99925.71
2023-01-10T06:40:35.625Z,99931.69
2023-01-10T06:43:03.437Z,99933.58
2023-01-10T06:45:31.250Z,99941.17
2023-01-10T06:47:58.958Z,99952.93
2023-01-10T06:50:26.907Z,99955.90
2023-01-10T06:53:02.512Z,99953.75
2023-01-10T06:55:31.518Z,99953.98
2023-01-10T06:58:01.790Z,99964.13
2023-01-10T07:00:30.514Z,99966.99
2023-01-10T07:03:00.772Z,99975.96
2023-01-10T07:05:29.703Z,99973.71
2023-01-10T07:07:58.896Z,99982.46
2023-01-10T07:10:27.732Z,99987.10
2023-01-10T07:12:55.856Z,99995.33
2023-01-10T07:15:23.641Z,99998.85
2023-01-10T07:17:51.510Z,100000.70
2023-01-10T07:20:20.070Z,100001.35
2023-01-10T07:22:58.672Z,100007.14
2023-01-10T07:25:28.179Z,100009.65
2023-01-10T07:27:55.983Z,100008.01
2023-01-10T07:30:25.405Z,100008.73
2023-01-10T07:32:57.154Z,100016.40
2023-01-10T07:35:25.577Z,100014.92
2023-01-10T07:37:53.413Z,100024.23
2023-01-10T07:40:21.201Z,100023.10
2023-01-10T07:42:49.119Z,100024.40
2023-01-10T07:45:16.833Z,100031.62
2023-01-10T07:47:44.749Z,100029.44
2023-01-10T07:50:12.530Z,100038.33
2023-01-10T07:52:40.361Z,100036.05
2023-01-10T07:55:08.695Z,100036.09
2023-01-10T07:57:36.544Z,100038.10
2023-01-10T08:00:04.544Z,100044.52
2023-01-10T08:02:32.922Z,100047.42
2023-01-10T08:05:01.273Z,100054.52
2023-01-10T08:07:30.396Z,100061.27
2023-01-10T08:09:58.657Z,100063.02
2023-01-10T08:12:26.467Z,100069.92
2023-01-10T08:14:54.243Z,100074.85
2023-01-10T08:17:23.049Z,100078.88
2023-01-10T08:19:50.941Z,100080.13
2023-01-10T08:22:18.691Z,100085.16
2023-01-10T08:24:46.376Z,100092.30
2023-01-10T08:27:14.134Z,100093.23
2023-01-10T08:29:42.229Z,100101.98
2023-01-10T08:32:10.145Z,100107.30
2023-01-10T08:34:37.914Z,100110.60
2023-01-10T08:37:05.877Z,100111.29
2023-01-10T08:39:35.710Z,100115.06
2023-01-10T08:42:03.980Z,100116.31
2023-01-10T08:44:31.827Z,100120.11
2023-01-10T08:46:59.746Z,100121.30
2023-01-10T08:49:27.515Z,100124.26
2023-01-10T08:51:55.298Z,100123.77
2023-01-10T08:54:23.201Z,100130.16
2023-01-10T08:56:50.950Z,100130.05
2023-01-10T08:59:18.688Z,100137.29
2023-01-10T09:01:46.748Z,100141.58
2023-01-10T09:04:14.545Z,100142.23
2023-01-10T09:06:42.323Z,100147.66
2023-01-10T09:09:10.358Z,100149.02
2023-01-10T09:11:38.765Z,100148.95
2023-01-10T09:14:07.927Z,100154.02
2023-01-10T09:16:35.861Z,100155.11
2023-01-10T09:19:04.383Z,100162.55
2023-01-10T09:21:32.222Z,100163.86
2023-01-10T09:24:00.005Z,100163.99
2023-01-10T09:26:27.751Z,100170.89
2023-01-10T09:28:55.506Z,100176.05
2023-01-10T09:31:23.363Z,100176.33
2023-01-10T09:33:53.638Z,100172.48
2023-01-10T09:36:21.490Z,100176.81
2023-01-10T09:38:49.224Z,100182.15
2023-01-10T09:42:02.368Z,100179.24
2023-01-10T09:44:42.308Z,100176.80
2023-01-10T09:47:23.032Z,100179.70
2023-01-10T09:50:10.508Z,100184.27
2023-01-10T09:52:41.459Z,100191.23
2023-01-10T09:55:27.912Z,100196.10
2023-01-10T09:57:57.867Z,100197.88
2023-01-10T10:00:39.363Z,100200.35
2023-01-10T10:03:26.136Z,100202.83
2023-01-10T10:06:00.844Z,100204.88
2023-01-10T10:08:36.149Z,100211.42
2023-01-10T10:11:23.577Z,100211.09
2023-01-10T10:14:02.933Z,100218.17
2023-01-10T10:16:44.074Z,100226.11
2023-01-10T10:19:53.440Z,100233.24
2023-01-10T10:22:38.280Z,100235.38
2023-01-10T10:25:08.998Z,100243.18
2023-01-10T10:28:20.955Z,100243.00
2023-01-10T10:31:08.632Z,100244.93
2023-01-10T10:34:16.090Z,100249.60
2023-01-10T10:37:25.107Z,100250.95
2023-01-10T10:40:26.043Z,100248.89
2023-01-10T10:42:56.167Z,100249.70
2023-01-10T10:45:39.521Z,100250.95
2023-01-10T10:48:18.235Z,100259.58
2023-01-10T10:51:24.415Z,100261.55
2023-01-10T10:53:52.275Z,100262.48
2023-01-10T10:56:21.839Z,100262.48
2023-01-10T10:58:51.752Z,100264.41
2023-01-10T11:01:20.064Z,100263.48
2023-01-10T11:03:52.792Z,100267.38
2023-01-10T11:06:21.762Z,100271.95
2023-01-10T11:08:53.204Z,100271.64
2023-01-10T11:11:26.324Z,100273.98
2023-01-10T11:13:57.150Z,100276.08
2023-01-10T11:16:33.395Z,100272.89
2023-01-10T11:19:21.556Z,100274.80
2023-01-10T11:21:54.017Z,100273.58
2023-01-10T11:24:38.359Z,100273.85
2023-01-10T11:27:21.262Z,100271.94
2023-01-10T11:29:54.011Z,100268.73
2023-01-10T11:32:27.730Z,100268.46
2023-01-10T11:34:59.140Z,100271.67
2023-01-10T11:37:32.762Z,100271.45
2023-01-10T11:40:24.011Z,100273.02
2023-01-10T11:42:59.145Z,100279.85
2023-01-10T11:45:32.975Z,100280.89
2023-01-10T11:48:21.391Z,100285.23
2023-01-10T11:50:55.239Z,100283.35
2023-01-10T11:53:43.190Z,100288.11
2023-01-10T11:56:13.990Z,100293.07
2023-01-10T11:58:42.685Z,100298.14
2023-01-10T12:01:31.112Z,100307.52
2023-01-10T12:03:59.040Z,100304.42
2023-01-10T12:06:27.903Z,100299.88
2023-01-10T12:08:58.087Z,100300.09
2023-01-10T12:11:33.185Z,100306.50
2023-01-10T12:14:02.016Z,100305.07
2023-01-10T12:16:34.453Z,100308.39
2023-01-10T12:19:05.217Z,100308.89
2023-01-10T12:21:39.114Z,100313.17
2023-01-10T12:24:16.331Z,100316.51
2023-01-10T12:26:44.867Z,100312.53
2023-01-10T12:29:16.654Z,100317.48
2023-01-10T12:31:44.598Z,100319.95
2023-01-10T12:34:20.146Z,100321.14
2023-01-10T12:37:04.395Z,100322.27
2023-01-10T12:39:35.062Z,100327.02
2023-01-10T12:42:32.622Z,100325.91
2023-01-10T12:45:09.246Z,100334.63
2023-01-10T12:47:57.372Z,100337.70
2023-01-10T12:50:42.064Z,100338.41
2023-01-10T12:53:30.950Z,100341.97
2023-01-10T12:56:04.221Z,100342.13
2023-01-10T12:58:56.060Z,100341.20
2023-01-10T13:01:32.273Z,100344.50
2023-01-10T13:04:04.333Z,100349.09
2023-01-10T13:06:35.276Z,100360.28
2023-01-10T13:09:17.236Z,100364.69
2023-01-10T13:12:14.877Z,100363.58
2023-01-10T13:15:04.970Z,100372.09
2023-01-10T13:17:32.738Z,100382.29
2023-01-10T13:20:27.669Z,100385.34
2023-01-10T13:22:58.063Z,100386.97
2023-01-10T13:25:37.904Z,100397.52
2023-01-10T13:28:10.190Z,100404.85
2023-01-10T13:30:40.683Z,100407.88
2023-01-10T13:33:25.043Z,100412.19
2023-01-10T13:35:53.475Z,100408.16
2023-01-10T13:38:30.088Z,100411.92
2023-01-10T13:40:57.865Z,100410.67
2023-01-10T13:43:29.406Z,100411.79
2023-01-10T13:46:23.385Z,100425.39
2023-01-10T13:48:51.188Z,100430.66
2023-01-10T13:51:19.768Z,100437.82
2023-01-10T13:53:54.942Z,100437.42
2023-01-10T13:56:28.737Z,100436.40
2023-01-10T13:59:15.099Z,100431.94
2023-01-10T14:02:01.801Z,100431.62
2023-01-10T14:04:30.049Z,100436.70
2023-01-10T14:07:01.390Z,100442.61
2023-01-10T14:09:33.767Z,100443.80
2023-01-10T14:12:05.699Z,100453.79
2023-01-10T14:14:33.363Z,100459.48
2023-01-10T14:17:10.202Z,100466.59
2023-01-10T14:19:37.939Z,100469.27
2023-01-10T14:22:05.686Z,100469.00
2023-01-10T14:24:43.357Z,100468.46
2023-01-10T14:27:14.978Z,100462.66
2023-01-10T14:29:50.025Z,100461.39
2023-01-10T14:32:26.984Z,100459.43
2023-01-10T14:34:54.720Z,100463.13
2023-01-10T14:37:31.313Z,100468.10
2023-01-10T14:39:59.352Z,100467.95
2023-01-10T14:42:27.347Z,100474.94
2023-01-10T14:45:10.462Z,100473.52
2023-01-10T14:47:39.062Z,100477.73
2023-01-10T14:50:07.101Z,100481.05
2023-01-10T14:52:34.716Z,100481.95
2023-01-10T14:55:04.643Z,100482.36
2023-01-10T14:57:32.347Z,100483.96
2023-01-10T15:00:15.669Z,100489.50
2023-01-10T15:02:45.823Z,100492.66
2023-01-10T15:05:20.794Z,100494.23
2023-01-10T15:07:48.723Z,100492.83
2023-01-10T15:10:27.505Z,100496.07
2023-01-10T15:12:56.396Z,100497.80
2023-01-10T15:15:27.482Z,100499.48
2023-01-10T15:17:55.269Z,100498.84
2023-01-10T15:20:23.110Z,100508.42
2023-01-10T15:22:54.571Z,100514.95
2023-01-10T15:25:24.315Z,100517.58
2023-01-10T15:27:52.676Z,100519.44
2023-01-10T15:30:24.384Z,100519.41
2023-01-10T15:32:52.892Z,100516.91
2023-01-10T15:35:27.473Z,100514.63
2023-01-10T15:38:11.369Z,100520.73
2023-01-10T15:40:39.200Z,100519.02
2023-01-10T15:43:13.531Z,100517.96
2023-01-10T15:45:42.785Z,100523.55
2023-01-10T15:48:29.497Z,100528.45
2023-01-10T15:51:03.653Z,100535.60
2023-01-10T15:53:51.791Z,100542.40
2023-01-10T15:56:20.920Z,100548.60
2023-01-10T15:58:48.589Z,100552.48
2023-01-10T16:01:16.525Z,100553.77
2023-01-10T16:03:45.356Z,100553.34
2023-01-10T16:06:23.579Z,100551.92
2023-01-10T16:08:52.952Z,100551.48
2023-01-10T16:11:43.321Z,100548.16
2023-01-10T16:14:11.415Z,100552.71
2023-01-10T16:16:39.375Z,100552.82
2023-01-10T16:19:07.134Z,100551.82
2023-01-10T16:21:36.102Z,100557.58
2023-01-10T16:24:04.267Z,100555.05
2023-01-10T16:26:31.999Z,100560.84
2023-01-10T16:28:59.783Z,100562.02
2023-01-10T16:31:27.611Z,100567.85
2023-01-10T16:33:55.668Z,100562.29
2023-01-10T16:36:23.696Z,100554.87
2023-01-10T16:38:51.394Z,100556.64
2023-01-10T16:41:37.970Z,100560.00
2023-01-10T16:44:05.693Z,100566.70
2023-01-10T16:46:33.488Z,100572.42
2023-01-10T16:49:01.209Z,100572.09
2023-01-10T16:51:30.290Z,100574.73
2023-01-10T16:53:58.033Z,100580.77
2023-01-10T16:56:26.562Z,100584.98
2023-01-10T16:58:54.572Z,100588.59
2023-01-10T17:01:24.293Z,100593.25
2023-01-10T17:03:52.172Z,100598.04
2023-01-10T17:06:20.004Z,100602.38
2023-01-10T17:08:49.553Z,100604.56
2023-01-10T17:11:18.215Z,100609.42
2023-01-10T17:13:46.102Z,100611.28
2023-01-10T17:16:13.880Z,100612.46
2023-01-10T17:18:42.213Z,100612.12
2023-01-10T17:21:20.262Z,100614.55
2023-01-10T17:23:48.025Z,100618.97
2023-01-10T17:26:16.372Z,100619.70
2023-01-10T17:28:49.446Z,100620.33
2023-01-10T17:31:19.495Z,100617.21
2023-01-10T17:33:48.977Z,100622.80
2023-01-10T17:36:19.117Z,100627.09
2023-01-10T17:38:47.430Z,100633.87
2023-01-10T17:41:15.299Z,100639.80
2023-01-10T17:43:42.944Z,100641.90
2023-01-10T17:46:11.025Z,100644.32
2023-01-10T17:48:38.814Z,100636.19
2023-01-10T17:51:06.461Z,100634.86
2023-01-10T17:53:34.264Z,100634.74
2023-01-10T17:56:02.110Z,100635.67
2023-01-10T17:58:29.917Z,100638.67
2023-01-10T18:00:57.898Z,100643.80
2023-01-10T18:03:25.657Z,100643.36
2023-01-10T18:05:54.546Z,100644.47
2023-01-10T18:08:22.578Z,100646.14
2023-01-10T18:10:50.704Z,100642.94
2023-01-10T18:13:18.805Z,100640.64
2023-01-10T18:15:47.689Z,100644.10
2023-01-10T18:18:16.685Z,100647.35
2023-01-10T18:20:44.680Z,100649.13
2023-01-10T18:23:22.109Z,100650.56
2023-01-10T18:26:00.235Z,100646.90
2023-01-10T18:28:40.003Z,100645.66
2023-01-10T18:31:09.886Z,100649.97
2023-01-10T18:33:37.757Z,100651.81
2023-01-10T18:36:06.325Z,100648.59
2023-01-10T18:38:35.170Z,100646.77
2023-01-10T18:41:02.880Z,100649.60
2023-01-10T18:43:31.263Z,100649.84
2023-01-10T18:46:03.365Z,100661.17
2023-01-10T18:48:31.478Z,100659.59
2023-01-10T18:50:59.877Z,100652.37
2023-01-10T18:53:28.035Z,100656.70
2023-01-10T18:55:56.220Z,100660.07
2023-01-10T18:58:25.320Z,100662.46
2023-01-10T19:00:53.870Z,100666.26
2023-01-10T19:03:21.704Z,100666.34
2023-01-10T19:05:49.955Z,100671.85
2023-01-10T19:08:17.732Z,100675.27
2023-01-10T19:11:07.518Z,100674.80
2023-01-10T19:13:33.116Z,100681.32
2023-01-10T19:16:28.305Z,100681.34
2023-01-10T19:19:00.037Z,100675.95
2023-01-10T19:21:29.396Z,100674.77
2023-01-10T19:24:00.103Z,100669.80
2023-01-10T19:26:28.419Z,100670.68
2023-01-10T19:28:56.482Z,100671.08
2023-01-10T19:31:25.371Z,100675.33
2023-01-10T19:33:53.423Z,100672.11
2023-01-10T19:36:22.342Z,100676.30
2023-01-10T19:38:57.030Z,100671.92
2023-01-10T19:41:25.359Z,100670.67
2023-01-10T19:43:59.678Z,100671.18
2023-01-10T19:46:27.720Z,100682.40
2023-01-10T19:48:55.741Z,100679.56
2023-01-10T19:51:23.513Z,100680.73
2023-01-10T19:53:51.103Z,100681.59
2023-01-10T19:56:23.037Z,100687.59
2023-01-10T19:58:51.036Z,100689.75
2023-01-10T20:01:19.958Z,100690.63
2023-01-10T20:03:47.837Z,100692.69
2023-01-10T20:06:17.240Z,100686.05
2023-01-10T20:08:45.203Z,100684.83
2023-01-10T20:11:12.996Z,100684.52
2023-01-10T20:13:45.101Z,100687.66
2023-01-10T20:16:13.496Z,100683.84
2023-01-10T20:18:41.442Z,100677.54
2023-01-10T20:21:09.715Z,100678.94
2023-01-10T20:23:37.947Z,100685.82
2023-01-10T20:26:06.679Z,100680.50
2023-01-10T20:28:34.480Z,100679.63
2023-01-10T20:31:02.262Z,100680.77
2023-01-10T20:33:30.020Z,100682.49
2023-01-10T20:36:01.734Z,100676.48
2023-01-10T20:38:29.695Z,100683.70
2023-01-10T20:41:01.002Z,100686.00
2023-01-10T20:43:28.733Z,100683.17
2023-01-10T20:45:56.472Z,100682.08
2023-01-10T20:48:24.220Z,100676.69
2023-01-10T20:50:51.839Z,100678.48
2023-01-10T20:53:19.731Z,100679.17
2023-01-10T20:55:59.121Z,100673.96
2023-01-10T20:58:27.521Z,100668.70
2023-01-10T21:00:55.219Z,100664.33
2023-01-10T21:03:22.858Z,100660.98
2023-01-10T21:05:51.112Z,100662.13
2023-01-10T21:08:19.171Z,100667.40
2023-01-10T21:10:47.141Z,100665.41
2023-01-10T21:13:14.808Z,100668.38
2023-01-10T21:15:43.710Z,100670.99
2023-01-10T21:18:12.043Z,100666.50
2023-01-10T21:20:43.592Z,100662.20
2023-01-10T21:23:11.677Z,100659.91
2023-01-10T21:25:39.631Z,100660.80
2023-01-10T21:28:09.832Z,100664.23
2023-01-10T21:30:37.960Z,100662.83
2023-01-10T21:33:05.780Z,100656.50
2023-01-10T21:35:33.918Z,100652.41
2023-01-10T21:38:02.283Z,100653.20
2023-01-10T21:40:31.806Z,100657.35
2023-01-10T21:43:00.171Z,100656.34
2023-01-10T21:45:28.554Z,100657.86
2023-01-10T21:47:56.568Z,100648.11
2023-01-10T21:50:24.183Z,100648.16
2023-01-10T21:52:51.870Z,100647.60
2023-01-10T21:55:19.644Z,100653.58
2023-01-10T21:57:47.315Z,100652.66
2023-01-10T22:00:15.129Z,100655.15
2023-01-10T22:02:43.105Z,100654.92
2023-01-10T22:05:11.239Z,100654.56
2023-01-10T22:07:38.903Z,100657.05
2023-01-10T22:10:07.603Z,100657.21
2023-01-10T22:12:36.670Z,100659.43
2023-01-10T22:15:04.694Z,100656.98
2023-01-10T22:17:32.361Z,100655.73
2023-01-10T22:20:00.039Z,100654.70
2023-01-10T22:22:27.712Z,100651.15
2023-01-10T22:24:55.469Z,100646.61
2023-01-10T22:27:23.067Z,100644.10
2023-01-10T22:29:50.789Z,100642.52
2023-01-10T22:32:18.512Z,100636.61
2023-01-10T22:34:46.188Z,100637.24
2023-01-10T22:37:13.836Z,100637.34
2023-01-10T22:39:41.797Z,100637.90
2023-01-10T22:42:09.394Z,100644.84
2023-01-10T22:44:37.029Z,100640.17
2023-01-10T22:47:04.714Z,100644.90
2023-01-10T22:49:32.331Z,100640.88
2023-01-10T22:51:59.950Z,100633.44
2023-01-10T22:54:27.690Z,100638.39
2023-01-10T22:56:55.410Z,100636.17
2023-01-10T22:59:23.131Z,100636.14
2023-01-10T23:01:50.912Z,100632.80
2023-01-10T23:04:20.300Z,100636.19
2023-01-10T23:06:48.577Z,100637.92
2023-01-10T23:09:16.235Z,100633.59
2023-01-10T23:11:43.865Z,100629.58
2023-01-10T23:14:11.615Z,100627.98
2023-01-10T23:16:39.320Z,100619.55
2023-01-10T23:19:07.043Z,100619.31
2023-01-10T23:21:34.710Z,100622.64
2023-01-10T23:24:02.355Z,100625.23
2023-01-10T23:26:30.022Z,100624.09
2023-01-10T23:28:57.723Z,100629.55
2023-01-10T23:31:29.516Z,100624.58
2023-01-10T23:33:57.577Z,100626.96
2023-01-10T23:36:25.203Z,100625.17
2023-01-10T23:38:53.018Z,100623.20
2023-01-10T23:41:21.172Z,100625.86
2023-01-10T23:43:49.403Z,100625.02
2023-01-10T23:46:17.267Z,100621.08
2023-01-10T23:48:46.527Z,100621.11
2023-01-10T23:51:14.681Z,100617.46
2023-01-10T23:53:42.360Z,100616.27
2023-01-10T23:56:10.867Z,100611.35
2023-01-10T23:58:38.740Z,100612.80
